sensor_id;sensor_type;location;lat;lon;timestamp;temperature;humidity
3348;DHT22;1687;49.540;8.574;2023-05-24T00:01:34;13.40;63.40
3348;DHT22;1687;49.540;8.574;2023-05-24T00:04:02;13.40;63.20
3348;DHT22;1687;49.540;8.574;2023-05-24T00:06:28;13.50;63.70
3348;DHT22;1687;49.540;8.574;2023-05-24T00:08:54;13.50;63.70
3348;DHT22;1687;49.540;8.574;2023-05-24T00:11:21;13.50;63.30
3348;DHT22;1687;49.540;8.574;2023-05-24T00:13:47;13.50;63.40
3348;DHT22;1687;49.540;8.574;2023-05-24T00:16:14;13.40;63.10
3348;DHT22;1687;49.540;8.574;2023-05-24T00:18:39;13.30;63.20
3348;DHT22;1687;49.540;8.574;2023-05-24T00:21:09;13.20;63.20
3348;DHT22;1687;49.540;8.574;2023-05-24T00:23:35;13.20;63.60
3348;DHT22;1687;49.540;8.574;2023-05-24T00:26:03;13.20;63.50
3348;DHT22;1687;49.540;8.574;2023-05-24T00:28:29;13.10;63.50
3348;DHT22;1687;49.540;8.574;2023-05-24T00:30:56;13.10;63.30
3348;DHT22;1687;49.540;8.574;2023-05-24T00:33:22;13.10;63.50
3348;DHT22;1687;49.540;8.574;2023-05-24T00:35:49;13.10;63.80
3348;DHT22;1687;49.540;8.574;2023-05-24T00:38:20;13.20;63.90
3348;DHT22;1687;49.540;8.574;2023-05-24T00:40:47;13.20;63.90
3348;DHT22;1687;49.540;8.574;2023-05-24T00:43:13;13.20;64.00
3348;DHT22;1687;49.540;8.574;2023-05-24T00:45:39;13.20;63.90
3348;DHT22;1687;49.540;8.574;2023-05-24T00:48:05;13.20;64.00
3348;DHT22;1687;49.540;8.574;2023-05-24T00:50:32;13.20;64.00
3348;DHT22;1687;49.540;8.574;2023-05-24T00:53:02;13.20;63.80
3348;DHT22;1687;49.540;8.574;2023-05-24T00:55:29;13.20;63.80
3348;DHT22;1687;49.540;8.574;2023-05-24T00:57:58;13.10;63.80
3348;DHT22;1687;49.540;8.574;2023-05-24T01:00:25;13.10;63.70
3348;DHT22;1687;49.540;8.574;2023-05-24T01:02:52;13.00;63.80
3348;DHT22;1687;49.540;8.574;2023-05-24T01:05:19;13.00;63.70
3348;DHT22;1687;49.540;8.574;2023-05-24T01:11:00;13.00;63.80
3348;DHT22;1687;49.540;8.574;2023-05-24T01:16:49;12.80;63.60
3348;DHT22;1687;49.540;8.574;2023-05-24T01:19:35;12.80;63.70
3348;DHT22;1687;49.540;8.574;2023-05-24T01:25:28;12.80;63.80
3348;DHT22;1687;49.540;8.574;2023-05-24T01:28:17;12.80;63.90
3348;DHT22;1687;49.540;8.574;2023-05-24T01:30:43;12.70;63.70
3348;DHT22;1687;49.540;8.574;2023-05-24T01:33:09;12.70;63.90
3348;DHT22;1687;49.540;8.574;2023-05-24T01:35:36;12.70;64.00
3348;DHT22;1687;49.540;8.574;2023-05-24T01:38:05;12.70;64.00
3348;DHT22;1687;49.540;8.574;2023-05-24T01:40:32;12.70;64.20
3348;DHT22;1687;49.540;8.574;2023-05-24T01:43:14;12.70;64.10
3348;DHT22;1687;49.540;8.574;2023-05-24T01:49:21;12.60;64.00
3348;DHT22;1687;49.540;8.574;2023-05-24T01:51:57;12.60;63.90
3348;DHT22;1687;49.540;8.574;2023-05-24T01:54:32;12.60;64.10
3348;DHT22;1687;49.540;8.574;2023-05-24T01:56:59;12.70;64.40
3348;DHT22;1687;49.540;8.574;2023-05-24T01:59:27;12.60;63.90
3348;DHT22;1687;49.540;8.574;2023-05-24T02:01:54;12.60;64.20
3348;DHT22;1687;49.540;8.574;2023-05-24T02:04:20;12.60;64.00
3348;DHT22;1687;49.540;8.574;2023-05-24T02:06:46;12.70;64.20
3348;DHT22;1687;49.540;8.574;2023-05-24T02:09:12;12.70;64.00
3348;DHT22;1687;49.540;8.574;2023-05-24T02:11:37;12.60;64.00
3348;DHT22;1687;49.540;8.574;2023-05-24T02:14:03;12.60;64.00
3348;DHT22;1687;49.540;8.574;2023-05-24T02:16:28;12.60;64.20
3348;DHT22;1687;49.540;8.574;2023-05-24T02:18:55;12.60;64.10
3348;DHT22;1687;49.540;8.574;2023-05-24T02:21:21;12.60;63.80
3348;DHT22;1687;49.540;8.574;2023-05-24T02:23:48;12.60;64.20
3348;DHT22;1687;49.540;8.574;2023-05-24T02:26:14;12.60;64.30
3348;DHT22;1687;49.540;8.574;2023-05-24T02:28:42;12.50;64.10
3348;DHT22;1687;49.540;8.574;2023-05-24T02:31:08;12.60;64.40
3348;DHT22;1687;49.540;8.574;2023-05-24T02:33:33;12.60;64.30
3348;DHT22;1687;49.540;8.574;2023-05-24T02:36:02;12.60;64.40
3348;DHT22;1687;49.540;8.574;2023-05-24T02:38:27;12.60;64.50
3348;DHT22;1687;49.540;8.574;2023-05-24T02:40:53;12.70;65.40
3348;DHT22;1687;49.540;8.574;2023-05-24T02:43:19;12.70;64.70
3348;DHT22;1687;49.540;8.574;2023-05-24T02:45:44;12.80;64.30
3348;DHT22;1687;49.540;8.574;2023-05-24T02:48:10;12.70;64.30
3348;DHT22;1687;49.540;8.574;2023-05-24T02:50:36;12.70;64.20
3348;DHT22;1687;49.540;8.574;2023-05-24T02:53:02;12.50;63.80
3348;DHT22;1687;49.540;8.574;2023-05-24T02:55:27;12.50;64.20
3348;DHT22;1687;49.540;8.574;2023-05-24T02:57:56;12.50;64.60
3348;DHT22;1687;49.540;8.574;2023-05-24T03:00:22;12.60;64.50
3348;DHT22;1687;49.540;8.574;2023-05-24T03:02:48;12.60;64.30
3348;DHT22;1687;49.540;8.574;2023-05-24T03:05:16;12.50;64.30
3348;DHT22;1687;49.540;8.574;2023-05-24T03:07:41;12.50;64.20
3348;DHT22;1687;49.540;8.574;2023-05-24T03:10:07;12.50;64.30
3348;DHT22;1687;49.540;8.574;2023-05-24T03:12:34;12.60;64.80
3348;DHT22;1687;49.540;8.574;2023-05-24T03:14:59;12.60;64.50
3348;DHT22;1687;49.540;8.574;2023-05-24T03:17:25;12.50;64.20
3348;DHT22;1687;49.540;8.574;2023-05-24T03:19:51;12.60;64.50
3348;DHT22;1687;49.540;8.574;2023-05-24T03:22:17;12.60;64.30
3348;DHT22;1687;49.540;8.574;2023-05-24T03:24:43;12.50;64.10
3348;DHT22;1687;49.540;8.574;2023-05-24T03:27:10;12.50;64.40
3348;DHT22;1687;49.540;8.574;2023-05-24T03:29:36;12.50;64.00
3348;DHT22;1687;49.540;8.574;2023-05-24T03:32:02;12.40;64.40
3348;DHT22;1687;49.540;8.574;2023-05-24T03:34:28;12.40;64.20
3348;DHT22;1687;49.540;8.574;2023-05-24T03:36:55;12.50;64.40
3348;DHT22;1687;49.540;8.574;2023-05-24T03:39:21;12.50;64.50
3348;DHT22;1687;49.540;8.574;2023-05-24T03:41:47;12.50;64.60
3348;DHT22;1687;49.540;8.574;2023-05-24T03:44:12;12.60;64.40
3348;DHT22;1687;49.540;8.574;2023-05-24T03:46:38;12.50;64.30
3348;DHT22;1687;49.540;8.574;2023-05-24T03:49:05;12.60;64.60
3348;DHT22;1687;49.540;8.574;2023-05-24T03:51:31;12.60;64.40
3348;DHT22;1687;49.540;8.574;2023-05-24T03:53:57;12.60;64.60
3348;DHT22;1687;49.540;8.574;2023-05-24T03:56:24;12.70;64.50
3348;DHT22;1687;49.540;8.574;2023-05-24T03:58:51;12.70;64.50
3348;DHT22;1687;49.540;8.574;2023-05-24T04:01:17;12.70;64.50
3348;DHT22;1687;49.540;8.574;2023-05-24T04:03:46;12.80;64.40
3348;DHT22;1687;49.540;8.574;2023-05-24T04:06:12;12.80;64.40
3348;DHT22;1687;49.540;8.574;2023-05-24T04:08:38;12.80;64.40
3348;DHT22;1687;49.540;8.574;2023-05-24T04:11:04;12.80;64.00
3348;DHT22;1687;49.540;8.574;2023-05-24T04:13:30;12.70;63.90
3348;DHT22;1687;49.540;8.574;2023-05-24T04:15:55;12.60;63.60
3348;DHT22;1687;49.540;8.574;2023-05-24T04:18:21;12.60;64.00
3348;DHT22;1687;49.540;8.574;2023-05-24T04:20:47;12.60;64.00
3348;DHT22;1687;49.540;8.574;2023-05-24T04:23:12;12.50;63.80
3348;DHT22;1687;49.540;8.574;2023-05-24T04:25:38;12.40;63.70
3348;DHT22;1687;49.540;8.574;2023-05-24T04:28:04;12.40;63.60
3348;DHT22;1687;49.540;8.574;2023-05-24T04:30:30;12.40;63.90
3348;DHT22;1687;49.540;8.574;2023-05-24T04:32:57;12.30;63.50
3348;DHT22;1687;49.540;8.574;2023-05-24T04:35:26;12.20;63.40
3348;DHT22;1687;49.540;8.574;2023-05-24T04:37:51;12.10;63.40
3348;DHT22;1687;49.540;8.574;2023-05-24T04:40:17;12.00;63.70
3348;DHT22;1687;49.540;8.574;2023-05-24T04:42:47;12.00;63.80
3348;DHT22;1687;49.540;8.574;2023-05-24T04:45:13;12.00;63.70
3348;DHT22;1687;49.540;8.574;2023-05-24T04:47:39;12.00;63.70
3348;DHT22;1687;49.540;8.574;2023-05-24T04:50:06;12.00;63.90
3348;DHT22;1687;49.540;8.574;2023-05-24T04:52:32;12.00;63.80
3348;DHT22;1687;49.540;8.574;2023-05-24T04:55:01;12.00;63.80
3348;DHT22;1687;49.540;8.574;2023-05-24T04:57:28;12.10;64.20
3348;DHT22;1687;49.540;8.574;2023-05-24T04:59:53;12.10;64.90
3348;DHT22;1687;49.540;8.574;2023-05-24T05:02:19;12.20;64.00
3348;DHT22;1687;49.540;8.574;2023-05-24T05:04:46;12.20;63.70
3348;DHT22;1687;49.540;8.574;2023-05-24T05:07:12;12.20;64.00
3348;DHT22;1687;49.540;8.574;2023-05-24T05:09:37;12.10;63.80
3348;DHT22;1687;49.540;8.574;2023-05-24T05:12:03;12.20;64.10
3348;DHT22;1687;49.540;8.574;2023-05-24T05:14:29;12.30;64.20
3348;DHT22;1687;49.540;8.574;2023-05-24T05:16:55;12.30;64.10
3348;DHT22;1687;49.540;8.574;2023-05-24T05:19:20;12.40;64.00
3348;DHT22;1687;49.540;8.574;2023-05-24T05:21:46;12.40;64.00
3348;DHT22;1687;49.540;8.574;2023-05-24T05:24:14;12.50;64.10
3348;DHT22;1687;49.540;8.574;2023-05-24T05:26:40;12.60;64.20
3348;DHT22;1687;49.540;8.574;2023-05-24T05:29:06;12.60;63.70
3348;DHT22;1687;49.540;8.574;2023-05-24T05:31:31;12.50;63.70
3348;DHT22;1687;49.540;8.574;2023-05-24T05:33:57;12.50;63.80
3348;DHT22;1687;49.540;8.574;2023-05-24T05:36:22;12.50;63.70
3348;DHT22;1687;49.540;8.574;2023-05-24T05:38:48;12.50;64.40
3348;DHT22;1687;49.540;8.574;2023-05-24T05:41:14;12.50;63.50
3348;DHT22;1687;49.540;8.574;2023-05-24T05:43:39;12.40;64.20
3348;DHT22;1687;49.540;8.574;2023-05-24T05:46:05;12.40;63.50
3348;DHT22;1687;49.540;8.574;2023-05-24T05:48:31;12.30;63.50
3348;DHT22;1687;49.540;8.574;2023-05-24T05:50:57;12.30;63.30
3348;DHT22;1687;49.540;8.574;2023-05-24T05:53:22;12.20;63.10
3348;DHT22;1687;49.540;8.574;2023-05-24T05:55:49;12.20;63.30
3348;DHT22;1687;49.540;8.574;2023-05-24T05:58:15;12.30;63.40
3348;DHT22;1687;49.540;8.574;2023-05-24T06:00:40;12.50;63.40
3348;DHT22;1687;49.540;8.574;2023-05-24T06:03:06;12.60;63.50
3348;DHT22;1687;49.540;8.574;2023-05-24T06:05:32;12.80;63.30
3348;DHT22;1687;49.540;8.574;2023-05-24T06:07:57;12.80;63.40
3348;DHT22;1687;49.540;8.574;2023-05-24T06:10:23;12.90;63.20
3348;DHT22;1687;49.540;8.574;2023-05-24T06:12:49;12.90;62.90
3348;DHT22;1687;49.540;8.574;2023-05-24T06:15:14;13.10;63.10
3348;DHT22;1687;49.540;8.574;2023-05-24T06:17:40;13.10;63.00
3348;DHT22;1687;49.540;8.574;2023-05-24T06:20:08;13.20;62.70
3348;DHT22;1687;49.540;8.574;2023-05-24T06:22:37;13.20;62.50
3348;DHT22;1687;49.540;8.574;2023-05-24T06:25:04;13.30;62.60
3348;DHT22;1687;49.540;8.574;2023-05-24T06:27:30;13.40;62.60
3348;DHT22;1687;49.540;8.574;2023-05-24T06:29:56;13.50;62.30
3348;DHT22;1687;49.540;8.574;2023-05-24T06:32:22;13.60;62.40
3348;DHT22;1687;49.540;8.574;2023-05-24T06:34:47;13.80;62.40
3348;DHT22;1687;49.540;8.574;2023-05-24T06:37:13;13.80;62.00
3348;DHT22;1687;49.540;8.574;2023-05-24T06:39:41;13.80;61.60
3348;DHT22;1687;49.540;8.574;2023-05-24T06:42:07;13.90;61.70
3348;DHT22;1687;49.540;8.574;2023-05-24T06:44:33;13.90;61.40
3348;DHT22;1687;49.540;8.574;2023-05-24T06:47:02;14.10;62.00
3348;DHT22;1687;49.540;8.574;2023-05-24T06:49:28;14.30;61.80
3348;DHT22;1687;49.540;8.574;2023-05-24T06:51:54;14.40;61.50
3348;DHT22;1687;49.540;8.574;2023-05-24T06:54:20;14.50;61.50
3348;DHT22;1687;49.540;8.574;2023-05-24T06:56:46;14.60;61.20
3348;DHT22;1687;49.540;8.574;2023-05-24T06:59:12;14.60;60.30
3348;DHT22;1687;49.540;8.574;2023-05-24T07:01:38;14.60;61.30
3348;DHT22;1687;49.540;8.574;2023-05-24T07:04:07;14.50;60.20
3348;DHT22;1687;49.540;8.574;2023-05-24T07:06:34;14.50;60.00
3348;DHT22;1687;49.540;8.574;2023-05-24T07:09:00;14.40;59.90
3348;DHT22;1687;49.540;8.574;2023-05-24T07:11:29;14.30;59.80
3348;DHT22;1687;49.540;8.574;2023-05-24T07:13:56;14.40;60.10
3348;DHT22;1687;49.540;8.574;2023-05-24T07:16:22;14.60;60.00
3348;DHT22;1687;49.540;8.574;2023-05-24T07:18:47;14.80;60.00
3348;DHT22;1687;49.540;8.574;2023-05-24T07:21:13;14.70;59.20
3348;DHT22;1687;49.540;8.574;2023-05-24T07:23:39;14.80;59.70
3348;DHT22;1687;49.540;8.574;2023-05-24T07:26:04;14.90;59.60
3348;DHT22;1687;49.540;8.574;2023-05-24T07:28:30;14.90;59.40
3348;DHT22;1687;49.540;8.574;2023-05-24T07:30:56;14.90;59.30
3348;DHT22;1687;49.540;8.574;2023-05-24T07:33:22;15.00;59.40
3348;DHT22;1687;49.540;8.574;2023-05-24T07:35:48;15.10;59.30
3348;DHT22;1687;49.540;8.574;2023-05-24T07:38:19;15.30;59.40
3348;DHT22;1687;49.540;8.574;2023-05-24T07:40:45;15.30;58.90
3348;DHT22;1687;49.540;8.574;2023-05-24T07:43:11;15.20;58.90
3348;DHT22;1687;49.540;8.574;2023-05-24T07:45:36;15.30;59.00
3348;DHT22;1687;49.540;8.574;2023-05-24T07:48:02;15.40;59.00
3348;DHT22;1687;49.540;8.574;2023-05-24T07:50:28;15.60;59.20
3348;DHT22;1687;49.540;8.574;2023-05-24T07:52:55;15.80;59.00
3348;DHT22;1687;49.540;8.574;2023-05-24T07:55:21;15.90;58.60
3348;DHT22;1687;49.540;8.574;2023-05-24T07:57:47;15.90;58.40
3348;DHT22;1687;49.540;8.574;2023-05-24T08:00:13;15.90;58.40
3348;DHT22;1687;49.540;8.574;2023-05-24T08:02:40;16.00;58.20
3348;DHT22;1687;49.540;8.574;2023-05-24T08:05:07;16.00;57.70
3348;DHT22;1687;49.540;8.574;2023-05-24T08:07:34;15.90;57.80
3348;DHT22;1687;49.540;8.574;2023-05-24T08:10:00;16.00;57.80
3348;DHT22;1687;49.540;8.574;2023-05-24T08:12:26;16.10;57.90
3348;DHT22;1687;49.540;8.574;2023-05-24T08:14:54;16.30;57.90
3348;DHT22;1687;49.540;8.574;2023-05-24T08:17:21;16.20;57.00
3348;DHT22;1687;49.540;8.574;2023-05-24T08:19:46;16.10;57.30
3348;DHT22;1687;49.540;8.574;2023-05-24T08:22:12;16.00;56.80
3348;DHT22;1687;49.540;8.574;2023-05-24T08:24:38;15.70;56.90
3348;DHT22;1687;49.540;8.574;2023-05-24T08:27:03;15.70;57.00
3348;DHT22;1687;49.540;8.574;2023-05-24T08:29:29;15.80;57.20
3348;DHT22;1687;49.540;8.574;2023-05-24T08:31:55;15.80;56.90
3348;DHT22;1687;49.540;8.574;2023-05-24T08:34:21;15.80;57.10
3348;DHT22;1687;49.540;8.574;2023-05-24T08:36:46;15.80;57.20
3348;DHT22;1687;49.540;8.574;2023-05-24T08:39:12;16.00;57.30
3348;DHT22;1687;49.540;8.574;2023-05-24T08:41:39;16.10;57.00
3348;DHT22;1687;49.540;8.574;2023-05-24T08:44:06;16.00;56.70
3348;DHT22;1687;49.540;8.574;2023-05-24T08:46:34;15.90;56.70
3348;DHT22;1687;49.540;8.574;2023-05-24T08:49:00;16.00;57.10
3348;DHT22;1687;49.540;8.574;2023-05-24T08:51:28;16.20;57.10
3348;DHT22;1687;49.540;8.574;2023-05-24T08:53:57;16.30;57.00
3348;DHT22;1687;49.540;8.574;2023-05-24T08:56:25;16.20;56.50
3348;DHT22;1687;49.540;8.574;2023-05-24T08:58:52;16.10;56.40
3348;DHT22;1687;49.540;8.574;2023-05-24T09:01:18;16.20;56.90
3348;DHT22;1687;49.540;8.574;2023-05-24T09:03:45;16.20;56.50
3348;DHT22;1687;49.540;8.574;2023-05-24T09:06:15;16.30;56.70
3348;DHT22;1687;49.540;8.574;2023-05-24T09:08:42;16.30;56.50
3348;DHT22;1687;49.540;8.574;2023-05-24T09:11:09;16.30;56.50
3348;DHT22;1687;49.540;8.574;2023-05-24T09:13:36;16.40;56.50
3348;DHT22;1687;49.540;8.574;2023-05-24T09:16:02;16.50;56.50
3348;DHT22;1687;49.540;8.574;2023-05-24T09:18:28;16.70;56.60
3348;DHT22;1687;49.540;8.574;2023-05-24T09:20:54;16.90;56.30
3348;DHT22;1687;49.540;8.574;2023-05-24T09:23:20;17.10;56.40
3348;DHT22;1687;49.540;8.574;2023-05-24T09:25:46;17.10;55.80
3348;DHT22;1687;49.540;8.574;2023-05-24T09:28:14;17.00;55.80
3348;DHT22;1687;49.540;8.574;2023-05-24T09:30:57;17.20;56.20
3348;DHT22;1687;49.540;8.574;2023-05-24T09:33:28;17.50;56.00
3348;DHT22;1687;49.540;8.574;2023-05-24T09:35:58;17.60;55.60
3348;DHT22;1687;49.540;8.574;2023-05-24T09:38:25;17.50;55.10
3348;DHT22;1687;49.540;8.574;2023-05-24T09:41:04;17.50;55.40
3348;DHT22;1687;49.540;8.574;2023-05-24T09:43:32;17.70;55.70
3348;DHT22;1687;49.540;8.574;2023-05-24T09:46:03;18.00;55.50
3348;DHT22;1687;49.540;8.574;2023-05-24T09:48:30;18.30;55.00
3348;DHT22;1687;49.540;8.574;2023-05-24T09:51:01;18.40;55.00
3348;DHT22;1687;49.540;8.574;2023-05-24T09:53:32;18.30;54.40
3348;DHT22;1687;49.540;8.574;2023-05-24T09:55:59;18.10;54.40
3348;DHT22;1687;49.540;8.574;2023-05-24T09:58:31;17.80;53.70
3348;DHT22;1687;49.540;8.574;2023-05-24T10:01:08;17.60;54.00
3348;DHT22;1687;49.540;8.574;2023-05-24T10:03:54;17.60;54.20
3348;DHT22;1687;49.540;8.574;2023-05-24T10:06:20;17.40;53.70
3348;DHT22;1687;49.540;8.574;2023-05-24T10:08:47;17.10;53.40
3348;DHT22;1687;49.540;8.574;2023-05-24T10:11:17;16.80;53.50
3348;DHT22;1687;49.540;8.574;2023-05-24T10:13:43;16.60;53.80
3348;DHT22;1687;49.540;8.574;2023-05-24T10:16:09;16.80;54.10
3348;DHT22;1687;49.540;8.574;2023-05-24T10:18:35;16.90;53.80
3348;DHT22;1687;49.540;8.574;2023-05-24T10:21:01;16.90;53.60
3348;DHT22;1687;49.540;8.574;2023-05-24T10:23:33;16.80;53.50
3348;DHT22;1687;49.540;8.574;2023-05-24T10:26:09;16.80;53.70
3348;DHT22;1687;49.540;8.574;2023-05-24T10:28:40;16.70;53.60
3348;DHT22;1687;49.540;8.574;2023-05-24T10:31:27;16.70;53.60
3348;DHT22;1687;49.540;8.574;2023-05-24T10:33:58;16.80;53.80
3348;DHT22;1687;49.540;8.574;2023-05-24T10:36:25;16.90;53.90
3348;DHT22;1687;49.540;8.574;2023-05-24T10:38:51;17.10;53.90
3348;DHT22;1687;49.540;8.574;2023-05-24T10:41:18;17.10;53.50
3348;DHT22;1687;49.540;8.574;2023-05-24T10:43:47;17.10;53.40
3348;DHT22;1687;49.540;8.574;2023-05-24T10:46:16;17.10;54.00
3348;DHT22;1687;49.540;8.574;2023-05-24T10:48:42;17.10;53.40
3348;DHT22;1687;49.540;8.574;2023-05-24T10:51:33;17.20;53.50
3348;DHT22;1687;49.540;8.574;2023-05-24T10:54:18;17.50;53.60
3348;DHT22;1687;49.540;8.574;2023-05-24T10:56:49;17.80;53.40
3348;DHT22;1687;49.540;8.574;2023-05-24T10:59:23;17.90;53.30
3348;DHT22;1687;49.540;8.574;2023-05-24T11:01:58;17.80;52.60
3348;DHT22;1687;49.540;8.574;2023-05-24T11:04:25;17.70;52.80
3348;DHT22;1687;49.540;8.574;2023-05-24T11:09:26;17.60;52.40
3348;DHT22;1687;49.540;8.574;2023-05-24T11:12:08;17.40;52.10
3348;DHT22;1687;49.540;8.574;2023-05-24T11:14:37;17.20;52.00
3348;DHT22;1687;49.540;8.574;2023-05-24T11:17:05;17.30;52.40
3348;DHT22;1687;49.540;8.574;2023-05-24T11:19:32;17.50;52.40
3348;DHT22;1687;49.540;8.574;2023-05-24T11:22:01;17.60;52.30
3348;DHT22;1687;49.540;8.574;2023-05-24T11:24:29;17.60;52.30
3348;DHT22;1687;49.540;8.574;2023-05-24T11:26:56;17.60;52.20
3348;DHT22;1687;49.540;8.574;2023-05-24T11:29:22;17.70;52.80
3348;DHT22;1687;49.540;8.574;2023-05-24T11:31:56;17.70;52.00
3348;DHT22;1687;49.540;8.574;2023-05-24T11:34:28;17.80;52.20
3348;DHT22;1687;49.540;8.574;2023-05-24T11:36:55;17.90;52.20
3348;DHT22;1687;49.540;8.574;2023-05-24T11:39:21;18.00;52.30
3348;DHT22;1687;49.540;8.574;2023-05-24T11:41:47;18.10;52.30
3348;DHT22;1687;49.540;8.574;2023-05-24T11:44:16;18.20;52.00
3348;DHT22;1687;49.540;8.574;2023-05-24T11:46:46;18.00;51.70
3348;DHT22;1687;49.540;8.574;2023-05-24T11:49:13;17.90;51.60
3348;DHT22;1687;49.540;8.574;2023-05-24T11:51:40;17.80;51.80
3348;DHT22;1687;49.540;8.574;2023-05-24T11:54:06;17.80;51.70
3348;DHT22;1687;49.540;8.574;2023-05-24T11:56:32;17.90;52.20
3348;DHT22;1687;49.540;8.574;2023-05-24T11:59:24;18.00;51.90
3348;DHT22;1687;49.540;8.574;2023-05-24T12:02:02;18.10;51.70
3348;DHT22;1687;49.540;8.574;2023-05-24T12:04:30;18.10;51.70
3348;DHT22;1687;49.540;8.574;2023-05-24T12:06:56;18.10;51.80
3348;DHT22;1687;49.540;8.574;2023-05-24T12:09:22;18.20;51.80
3348;DHT22;1687;49.540;8.574;2023-05-24T12:11:50;18.30;51.70
3348;DHT22;1687;49.540;8.574;2023-05-24T12:16:44;18.40;51.50
3348;DHT22;1687;49.540;8.574;2023-05-24T12:19:18;18.40;51.50
3348;DHT22;1687;49.540;8.574;2023-05-24T12:21:44;18.40;51.40
3348;DHT22;1687;49.540;8.574;2023-05-24T12:24:12;18.60;51.60
3348;DHT22;1687;49.540;8.574;2023-05-24T12:26:43;18.70;51.20
3348;DHT22;1687;49.540;8.574;2023-05-24T12:29:10;18.60;51.00
3348;DHT22;1687;49.540;8.574;2023-05-24T12:31:39;18.60;51.00
3348;DHT22;1687;49.540;8.574;2023-05-24T12:34:16;18.40;50.60
3348;DHT22;1687;49.540;8.574;2023-05-24T12:36:43;18.40;50.90
3348;DHT22;1687;49.540;8.574;2023-05-24T12:41:48;18.50;50.90
3348;DHT22;1687;49.540;8.574;2023-05-24T12:44:15;18.60;50.70
3348;DHT22;1687;49.540;8.574;2023-05-24T12:46:40;18.50;50.60
3348;DHT22;1687;49.540;8.574;2023-05-24T12:49:06;18.40;50.50
3348;DHT22;1687;49.540;8.574;2023-05-24T12:51:32;18.50;51.20
3348;DHT22;1687;49.540;8.574;2023-05-24T12:53:57;18.70;50.90
3348;DHT22;1687;49.540;8.574;2023-05-24T12:56:23;18.90;51.00
3348;DHT22;1687;49.540;8.574;2023-05-24T12:58:51;19.00;50.90
3348;DHT22;1687;49.540;8.574;2023-05-24T13:01:17;19.20;50.90
3348;DHT22;1687;49.540;8.574;2023-05-24T13:03:43;19.20;50.60
3348;DHT22;1687;49.540;8.574;2023-05-24T13:06:09;19.00;50.30
3348;DHT22;1687;49.540;8.574;2023-05-24T13:08:35;18.90;50.40
3348;DHT22;1687;49.540;8.574;2023-05-24T13:11:01;18.90;50.40
3348;DHT22;1687;49.540;8.574;2023-05-24T13:13:26;19.00;50.50
3348;DHT22;1687;49.540;8.574;2023-05-24T13:15:53;19.00;50.30
3348;DHT22;1687;49.540;8.574;2023-05-24T13:18:19;19.20;50.60
3348;DHT22;1687;49.540;8.574;2023-05-24T13:20:44;19.30;50.30
3348;DHT22;1687;49.540;8.574;2023-05-24T13:23:10;19.60;50.70
3348;DHT22;1687;49.540;8.574;2023-05-24T13:25:36;19.80;50.20
3348;DHT22;1687;49.540;8.574;2023-05-24T13:28:01;20.00;50.50
3348;DHT22;1687;49.540;8.574;2023-05-24T13:30:27;20.50;50.70
3348;DHT22;1687;49.540;8.574;2023-05-24T13:32:54;21.00;50.80
3348;DHT22;1687;49.540;8.574;2023-05-24T13:35:20;21.90;51.10
3348;DHT22;1687;49.540;8.574;2023-05-24T13:37:47;22.90;50.90
3348;DHT22;1687;49.540;8.574;2023-05-24T13:40:13;24.00;51.30
3348;DHT22;1687;49.540;8.574;2023-05-24T13:42:38;25.20;50.80
3348;DHT22;1687;49.540;8.574;2023-05-24T13:45:05;26.10;49.70
3348;DHT22;1687;49.540;8.574;2023-05-24T13:47:31;27.00;49.50
3348;DHT22;1687;49.540;8.574;2023-05-24T13:49:56;27.90;49.30
3348;DHT22;1687;49.540;8.574;2023-05-24T13:52:22;28.90;48.70
3348;DHT22;1687;49.540;8.574;2023-05-24T13:54:48;29.60;47.80
3348;DHT22;1687;49.540;8.574;2023-05-24T13:57:15;28.40;45.80
3348;DHT22;1687;49.540;8.574;2023-05-24T13:59:41;28.20;46.30
3348;DHT22;1687;49.540;8.574;2023-05-24T14:02:07;29.00;46.30
3348;DHT22;1687;49.540;8.574;2023-05-24T14:04:32;29.60;45.80
3348;DHT22;1687;49.540;8.574;2023-05-24T14:06:58;30.20;45.20
3348;DHT22;1687;49.540;8.574;2023-05-24T14:09:24;29.90;44.00
3348;DHT22;1687;49.540;8.574;2023-05-24T14:11:51;28.70;43.40
3348;DHT22;1687;49.540;8.574;2023-05-24T14:14:17;28.80;44.10
3348;DHT22;1687;49.540;8.574;2023-05-24T14:16:42;29.00;43.40
3348;DHT22;1687;49.540;8.574;2023-05-24T14:19:08;28.10;42.60
3348;DHT22;1687;49.540;8.574;2023-05-24T14:21:34;27.10;42.40
3348;DHT22;1687;49.540;8.574;2023-05-24T14:24:00;27.40;43.20
3348;DHT22;1687;49.540;8.574;2023-05-24T14:26:26;27.40;42.20
3348;DHT22;1687;49.540;8.574;2023-05-24T14:28:52;28.50;43.00
3348;DHT22;1687;49.540;8.574;2023-05-24T14:31:17;29.50;42.50
3348;DHT22;1687;49.540;8.574;2023-05-24T14:33:43;29.10;40.90
3348;DHT22;1687;49.540;8.574;2023-05-24T14:36:09;28.50;41.20
3348;DHT22;1687;49.540;8.574;2023-05-24T14:38:35;28.00;40.60
3348;DHT22;1687;49.540;8.574;2023-05-24T14:41:01;28.90;41.90
3348;DHT22;1687;49.540;8.574;2023-05-24T14:43:27;29.00;40.60
3348;DHT22;1687;49.540;8.574;2023-05-24T14:45:52;29.10;40.50
3348;DHT22;1687;49.540;8.574;2023-05-24T14:48:18;29.70;40.20
3348;DHT22;1687;49.540;8.574;2023-05-24T14:50:44;30.60;40.20
3348;DHT22;1687;49.540;8.574;2023-05-24T14:53:09;31.40;39.60
3348;DHT22;1687;49.540;8.574;2023-05-24T14:55:39;32.00;39.20
3348;DHT22;1687;49.540;8.574;2023-05-24T14:58:06;32.50;38.60
3348;DHT22;1687;49.540;8.574;2023-05-24T15:00:36;33.30;38.90
3348;DHT22;1687;49.540;8.574;2023-05-24T15:03:03;33.70;38.10
3348;DHT22;1687;49.540;8.574;2023-05-24T15:05:30;33.00;37.10
3348;DHT22;1687;49.540;8.574;2023-05-24T15:07:55;33.50;37.40
3348;DHT22;1687;49.540;8.574;2023-05-24T15:10:21;33.50;36.40
3348;DHT22;1687;49.540;8.574;2023-05-24T15:12:47;32.80;36.10
3348;DHT22;1687;49.540;8.574;2023-05-24T15:15:13;30.80;35.10
3348;DHT22;1687;49.540;8.574;2023-05-24T15:17:38;30.10;36.30
3348;DHT22;1687;49.540;8.574;2023-05-24T15:20:05;29.30;35.40
3348;DHT22;1687;49.540;8.574;2023-05-24T15:22:31;29.90;36.70
3348;DHT22;1687;49.540;8.574;2023-05-24T15:24:58;30.30;36.30
3348;DHT22;1687;49.540;8.574;2023-05-24T15:27:24;30.60;36.30
3348;DHT22;1687;49.540;8.574;2023-05-24T15:29:50;29.80;35.50
3348;DHT22;1687;49.540;8.574;2023-05-24T15:32:18;30.10;36.30
3348;DHT22;1687;49.540;8.574;2023-05-24T15:34:44;29.20;35.60
3348;DHT22;1687;49.540;8.574;2023-05-24T15:37:10;28.30;35.90
3348;DHT22;1687;49.540;8.574;2023-05-24T15:39:36;27.90;35.90
3348;DHT22;1687;49.540;8.574;2023-05-24T15:42:01;27.30;35.80
3348;DHT22;1687;49.540;8.574;2023-05-24T15:44:28;26.80;36.00
3348;DHT22;1687;49.540;8.574;2023-05-24T15:46:53;26.10;36.00
3348;DHT22;1687;49.540;8.574;2023-05-24T15:49:21;25.70;36.40
3348;DHT22;1687;49.540;8.574;2023-05-24T15:51:46;25.50;36.70
3348;DHT22;1687;49.540;8.574;2023-05-24T15:54:12;25.00;36.60
3348;DHT22;1687;49.540;8.574;2023-05-24T15:56:38;24.50;36.60
3348;DHT22;1687;49.540;8.574;2023-05-24T15:59:03;24.00;36.60
3348;DHT22;1687;49.540;8.574;2023-05-24T16:01:29;23.70;36.80
3348;DHT22;1687;49.540;8.574;2023-05-24T16:03:55;23.20;36.50
3348;DHT22;1687;49.540;8.574;2023-05-24T16:06:20;22.50;36.50
3348;DHT22;1687;49.540;8.574;2023-05-24T16:08:46;22.00;36.70
3348;DHT22;1687;49.540;8.574;2023-05-24T16:11:13;21.80;37.20
3348;DHT22;1687;49.540;8.574;2023-05-24T16:13:39;21.50;37.20
3348;DHT22;1687;49.540;8.574;2023-05-24T16:16:05;21.20;37.30
3348;DHT22;1687;49.540;8.574;2023-05-24T16:18:30;21.00;37.80
3348;DHT22;1687;49.540;8.574;2023-05-24T16:20:58;20.70;37.70
3348;DHT22;1687;49.540;8.574;2023-05-24T16:23:25;20.50;38.10